createdAt,value
2023-02-11T00:07:42.922Z,6.5
2023-02-11T00:17:43.493Z,6.5
2023-02-11T00:27:43.655Z,6.5
2023-02-11T00:47:45.312Z,6.6
2023-02-11T00:57:45.550Z,6.6
2023-02-11T01:17:46.752Z,6.6
2023-02-11T01:27:47.518Z,6.7
2023-02-11T01:37:48.427Z,6.6
2023-02-11T01:47:49.107Z,6.6
2023-02-11T01:57:50.120Z,6.6
2023-02-11T02:17:51.439Z,6.5
2023-02-11T02:27:52.116Z,6.5
2023-02-11T02:37:52.553Z,6.5
2023-02-11T02:47:53.264Z,6.4
2023-02-11T02:57:53.661Z,6.4
2023-02-11T03:07:54.735Z,6.4
2023-02-11T03:27:56.820Z,6.3
2023-02-11T03:37:57.498Z,6.3
2023-02-11T04:48:01.911Z,6.2
2023-02-11T04:58:02.737Z,6.2
2023-02-11T05:08:03.457Z,6.1
2023-02-11T05:18:04.428Z,6.1
2023-02-11T05:28:05.230Z,6.1
2023-02-11T05:48:07.076Z,6.1
2023-02-11T05:58:07.339Z,6
2023-02-11T06:08:07.964Z,6
2023-02-11T06:18:08.806Z,6
2023-02-11T06:28:09.889Z,6
2023-02-11T06:48:11.438Z,6
2023-02-11T07:08:12.600Z,6
2023-02-11T07:18:14.712Z,6
2023-02-11T07:28:14.235Z,6.1
2023-02-11T07:38:14.757Z,6.1
2023-02-11T07:48:15.017Z,6.1
2023-02-11T07:58:15.474Z,6.2
2023-02-11T08:08:15.726Z,6.2
2023-02-11T08:18:16.484Z,6.3
2023-02-11T08:28:16.822Z,6.4
2023-02-11T08:38:17.264Z,6.5
2023-02-11T08:58:19.166Z,6.6
2023-02-11T09:08:18.205Z,6.7
2023-02-11T09:18:18.895Z,6.8
2023-02-11T09:28:19.119Z,6.9
2023-02-11T09:38:19.732Z,6.9
2023-02-11T09:48:20.626Z,7
2023-02-11T09:58:21.250Z,7.1
2023-02-11T10:08:22.281Z,7.2
2023-02-11T10:18:22.966Z,7.2
2023-02-11T10:38:24.279Z,7.4
2023-02-11T10:48:24.965Z,7.5
2023-02-11T10:58:25.249Z,7.6
2023-02-11T11:08:26.255Z,7.8
2023-02-11T11:28:27.664Z,7.9
2023-02-11T11:38:27.781Z,7.9
2023-02-11T11:48:28.497Z,8
2023-02-11T11:58:28.611Z,8
2023-02-11T12:18:30.619Z,8.3
2023-02-11T12:28:31.215Z,8.5
2023-02-11T12:38:31.314Z,8.6
2023-02-11T12:58:44.366Z,8.9
2023-02-11T13:08:33.574Z,9.2
2023-02-11T13:18:34.043Z,9.1
2023-02-11T13:28:34.643Z,9.1
2023-02-11T13:38:35.028Z,9.1
2023-02-11T13:48:36.095Z,9.1
2023-02-11T13:58:36.200Z,9.1
2023-02-11T14:08:38.829Z,9.1
2023-02-11T14:28:37.759Z,9.1
2023-02-11T14:38:38.044Z,9.1
2023-02-11T14:48:38.342Z,9.1
2023-02-11T14:58:39.365Z,9.1
2023-02-11T15:08:40.017Z,9.1
2023-02-11T15:18:40.753Z,9.2
2023-02-11T15:28:41.696Z,9.2
2023-02-11T15:38:42.645Z,9.2
2023-02-11T15:58:44.197Z,9.2
2023-02-11T16:18:49.452Z,9
2023-02-11T16:38:46.181Z,8.9
2023-02-11T16:58:47.690Z,8.9
2023-02-11T17:08:48.727Z,8.8
2023-02-11T17:18:49.097Z,8.8
2023-02-11T17:28:49.868Z,8.8
2023-02-11T17:38:50.793Z,8.8
2023-02-11T17:48:51.748Z,8.8
2023-02-11T17:58:52.835Z,8.7
2023-02-11T18:08:55.651Z,8.7
2023-02-11T18:28:53.993Z,8.7
2023-02-11T18:48:56.215Z,8.6
2023-02-11T18:58:56.166Z,8.6
2023-02-11T19:08:59.477Z,8.6
2023-02-11T19:18:57.131Z,8.6
2023-02-11T19:28:57.621Z,8.5
2023-02-11T19:38:58.272Z,8.5
2023-02-11T19:48:59.072Z,8.5
2023-02-11T19:59:00.108Z,8.5
2023-02-11T20:09:00.928Z,8.5
2023-02-11T20:19:01.643Z,8.4
2023-02-11T20:39:02.360Z,8.4
2023-02-11T20:49:03.272Z,8.4
2023-02-11T20:59:04.075Z,8.3
2023-02-11T21:09:04.825Z,8.3
2023-02-11T21:19:05.567Z,8.3
2023-02-11T21:29:05.967Z,8.3
2023-02-11T21:39:06.206Z,8.3
2023-02-11T21:49:06.937Z,8.3
2023-02-11T21:59:07.089Z,8.2
2023-02-11T22:09:08.164Z,8.2
2023-02-11T22:19:08.386Z,8.2
2023-02-11T22:29:08.941Z,8.1
2023-02-11T22:39:09.562Z,8.1
2023-02-11T22:49:09.722Z,8.1
2023-02-11T22:59:10.064Z,8
2023-02-11T23:09:11.163Z,8
2023-02-11T23:19:11.942Z,8
2023-02-11T23:39:12.733Z,8
2023-02-11T23:59:14.058Z,7.9
